createdAt,value
2022-09-04T17:40:32.674Z,5.25
2022-09-04T17:40:50.008Z,4.57
2022-09-04T17:40:52.439Z,4.47
2022-09-04T17:43:22.089Z,4.38
2022-09-04T17:46:06.740Z,4.65
2022-09-04T17:48:42.031Z,3.95
2022-09-04T17:51:17.740Z,3.63
2022-09-04T17:53:51.741Z,3.90
2022-09-04T17:56:22.530Z,3.60
2022-09-04T17:59:22.642Z,3.90
2022-09-04T18:02:03.872Z,3.35
2022-09-04T18:04:37.835Z,3.75
2022-09-04T18:08:09.945Z,3.78
2022-09-04T18:10:50.135Z,3.63
2022-09-04T18:13:37.122Z,3.50
2022-09-04T18:16:27.006Z,3.20
2022-09-04T18:19:14.311Z,3.33
2022-09-04T18:21:53.905Z,3.20
2022-09-04T18:24:49.432Z,3.15
2022-09-04T18:27:29.981Z,3.40
2022-09-04T18:32:33.175Z,2.70
2022-09-04T18:37:13.150Z,3.00
2022-09-04T18:37:20.118Z,2.70
2022-09-04T18:39:08.769Z,2.92
2022-09-04T18:49:07.197Z,2.90
2022-09-04T18:50:24.013Z,3.25
2022-09-04T18:50:46.761Z,2.58
2022-09-04T18:53:43.465Z,2.78
2022-09-04T18:56:31.626Z,2.85
2022-09-04T18:59:15.911Z,2.72
2022-09-04T19:02:08.043Z,3.17
2022-09-04T19:05:08.809Z,3.55
2022-09-04T19:07:43.177Z,2.95
2022-09-04T19:10:25.562Z,3.10
2022-09-04T19:12:53.729Z,3.28
2022-09-04T19:15:45.683Z,3.20
2022-09-04T19:18:27.146Z,3.22
2022-09-04T19:21:29.568Z,3.00
2022-09-04T19:24:11.365Z,3.15
2022-09-04T19:26:56.173Z,3.08
2022-09-04T19:29:25.780Z,3.05
2022-09-04T19:32:09.661Z,3.15
2022-09-04T19:34:48.408Z,3.30
2022-09-04T19:39:00.206Z,2.97
2022-09-04T19:46:12.708Z,3.05
2022-09-04T19:46:19.314Z,3.63
2022-09-04T19:47:29.454Z,3.35
2022-09-04T19:53:22.826Z,3.40
2022-09-04T19:53:33.024Z,3.20
2022-09-04T19:56:12.824Z,3.30
2022-09-04T19:58:42.606Z,3.42
2022-09-04T20:01:23.711Z,3.30
2022-09-04T20:04:08.649Z,3.08
2022-09-04T20:06:51.377Z,3.20
2022-09-04T20:09:30.798Z,2.90
2022-09-04T20:12:16.868Z,2.88
2022-09-04T20:14:54.979Z,3.00
2022-09-04T20:18:01.936Z,2.92
2022-09-04T20:20:49.716Z,2.95
2022-09-04T20:23:40.478Z,3.10
2022-09-04T20:26:17.986Z,2.97
2022-09-04T20:29:12.001Z,3.30
2022-09-04T20:31:45.969Z,2.90
2022-09-04T20:34:28.706Z,2.70
2022-09-04T20:37:19.292Z,3.00
2022-09-04T20:40:04.563Z,2.80
2022-09-04T20:42:56.729Z,2.40
2022-09-04T20:48:13.892Z,2.90
2022-09-04T20:52:53.163Z,2.50
2022-09-04T20:52:57.423Z,2.80
2022-09-04T20:54:51.838Z,2.80
2022-09-04T21:02:00.449Z,2.72
2022-09-04T21:03:19.610Z,2.63
2022-09-04T21:03:56.969Z,2.70
2022-09-04T21:06:47.326Z,2.40
2022-09-04T21:09:54.891Z,2.50
2022-09-04T21:13:13.978Z,2.47
2022-09-04T21:16:02.999Z,2.22
2022-09-04T21:19:12.905Z,1.95
2022-09-04T21:22:05.338Z,2.05
2022-09-04T21:25:18.425Z,2.40
2022-09-04T21:28:08.510Z,2.10
2022-09-04T21:31:02.668Z,1.90
2022-09-04T21:34:16.731Z,2.38
2022-09-04T21:36:53.410Z,1.60
2022-09-04T21:39:58.523Z,1.80
2022-09-04T21:42:50.764Z,1.70
2022-09-04T21:45:28.277Z,1.80
2022-09-04T21:48:23.415Z,1.80
2022-09-04T21:50:58.736Z,1.45
2022-09-04T21:54:09.942Z,1.42
2022-09-04T22:02:20.252Z,1.60
2022-09-04T22:02:39.478Z,1.50
2022-09-04T22:03:09.574Z,1.70
2022-09-04T22:06:12.901Z,1.40
2022-09-04T22:13:32.290Z,2.65
2022-09-04T22:13:43.093Z,3.15
2022-09-04T22:15:10.286Z,3.60
2022-09-04T22:18:10.020Z,3.70
2022-09-04T22:20:47.198Z,3.58
2022-09-04T22:23:35.670Z,3.35
2022-09-04T22:26:27.841Z,2.92
2022-09-04T22:29:26.623Z,2.30
2022-09-04T22:32:20.278Z,2.13
2022-09-04T22:35:36.407Z,2.33
2022-09-04T22:38:47.645Z,1.88
2022-09-04T22:41:32.857Z,2.10
2022-09-04T22:44:11.832Z,1.73
2022-09-04T22:47:24.892Z,1.42
2022-09-04T22:50:09.790Z,1.60
2022-09-04T22:53:11.771Z,1.58
2022-09-04T22:56:19.169Z,1.30
2022-09-04T22:59:07.581Z,1.45
2022-09-04T23:02:13.722Z,1.40
2022-09-04T23:04:44.068Z,1.50
2022-09-04T23:13:12.206Z,1.25
2022-09-04T23:13:52.006Z,1.20
2022-09-04T23:14:19.221Z,1.20
2022-09-04T23:17:09.453Z,1.10
2022-09-04T23:26:33.347Z,1.20
2022-09-04T23:26:43.578Z,1.00
2022-09-04T23:26:47.561Z,1.35
2022-09-04T23:29:05.558Z,1.30
2022-09-04T23:32:13.345Z,1.13
2022-09-04T23:35:20.274Z,1.10
2022-09-04T23:38:23.937Z,1.00
2022-09-04T23:40:55.493Z,1.10
2022-09-04T23:44:06.268Z,1.30
2022-09-04T23:46:51.050Z,1.10
2022-09-04T23:49:57.189Z,1.20
2022-09-04T23:52:48.761Z,1.35
2022-09-04T23:55:28.478Z,1.20
2022-09-04T23:58:52.005Z,1.05
